Time;durP1;ratioP1;P1;durP2;ratioP2;P2;SDS_P1;SDS_P2;PMS_P1;PMS_P2;Temp;Humidity;BMP_temperature;BMP_pressure;BME280_temperature;BME280_humidity;BME280_pressure;Samples;Min_cycle;Max_cycle;Signal;HPM_P1;HPM_P2
2023/01/09 00:00:29;;;;;;;0.10;0.10;;;9.70;99.90;;;;;;5092810;27;20581;-80
2023/01/09 00:02:54;;;;;;;0.10;0.10;;;9.70;99.90;;;;;;5080319;28;20196;-80
2023/01/09 00:05:20;;;;;;;0.10;0.10;;;9.70;99.90;;;;;;5078470;28;20300;-80
2023/01/09 00:07:46;;;;;;;0.00;0.00;;;9.70;99.90;;;;;;5079521;28;20187;-80
2023/01/09 00:10:12;;;;;;;0.10;0.10;;;9.70;99.90;;;;;;5078578;28;20176;-80
2023/01/09 00:12:38;;;;;;;0.10;0.10;;;9.70;99.90;;;;;;5077646;28;20183;-80
2023/01/09 00:15:04;;;;;;;0.10;0.10;;;9.80;99.90;;;;;;5078309;28;20203;-80
2023/01/09 00:17:30;;;;;;;0.10;0.10;;;9.70;99.90;;;;;;5072803;28;20591;-80
2023/01/09 00:19:57;;;;;;;0.10;0.10;;;9.70;99.90;;;;;;5086894;28;20222;-79
2023/01/09 00:22:22;;;;;;;0.10;0.10;;;9.70;99.90;;;;;;5078473;28;20191;-80
2023/01/09 00:24:48;;;;;;;0.10;0.10;;;9.70;99.90;;;;;;5076605;28;20611;-81
2023/01/09 00:27:14;;;;;;;0.10;0.10;;;9.60;99.90;;;;;;5076001;28;20189;-80
2023/01/09 00:29:48;;;;;;;0.10;0.10;;;9.60;99.90;;;;;;5076064;28;20258;-80
2023/01/09 00:32:14;;;;;;;0.10;0.10;;;9.60;99.90;;;;;;5078007;28;20686;-80
2023/01/09 00:34:42;;;;;;;0.10;0.10;;;9.50;99.90;;;;;;5076439;28;20208;-80
2023/01/09 00:37:11;;;;;;;0.10;0.10;;;9.50;99.90;;;;;;5078053;28;20180;-80
2023/01/09 00:39:38;;;;;;;0.10;0.10;;;9.50;99.90;;;;;;5079098;28;20207;-80
2023/01/09 00:42:05;;;;;;;0.10;0.10;;;9.50;99.90;;;;;;5078403;28;20187;-80
2023/01/09 00:44:42;;;;;;;0.10;0.10;;;9.50;99.90;;;;;;5073825;28;20197;-80
2023/01/09 00:47:14;;;;;;;0.10;0.10;;;9.60;99.90;;;;;;5080922;28;20179;-80
2023/01/09 00:49:41;;;;;;;0.10;0.10;;;9.60;99.90;;;;;;5076763;28;20187;-80
2023/01/09 00:52:10;;;;;;;0.10;0.10;;;9.60;99.90;;;;;;5078302;28;20276;-80
2023/01/09 00:54:38;;;;;;;0.10;0.10;;;9.70;99.90;;;;;;5077149;28;20214;-80
2023/01/09 00:57:03;;;;;;;0.10;0.10;;;9.70;99.90;;;;;;5079375;28;20191;-80
2023/01/09 00:59:29;;;;;;;0.10;0.10;;;9.70;99.90;;;;;;5076905;28;20215;-80
2023/01/09 01:01:55;;;;;;;0.10;0.10;;;9.70;99.90;;;;;;5078873;28;20182;-79
2023/01/09 01:09:48;;;;;;;0.10;0.10;;;9.80;99.90;;;;;;5076828;28;20302;-80
2023/01/09 01:12:14;;;;;;;0.10;0.10;;;9.70;99.90;;;;;;5063761;28;20275;-79
2023/01/09 01:14:39;;;;;;;0.10;0.10;;;9.60;99.90;;;;;;5062511;28;20205;-80
2023/01/09 01:17:06;;;;;;;0.10;0.10;;;9.50;99.90;;;;;;5062887;28;20189;-80
2023/01/09 01:19:36;;;;;;;0.10;0.10;;;9.50;99.90;;;;;;5061979;28;20204;-80
2023/01/09 01:22:01;;;;;;;0.10;0.10;;;9.50;99.90;;;;;;5065535;28;20188;-80
2023/01/09 01:24:27;;;;;;;0.10;0.10;;;9.50;99.90;;;;;;5064756;28;20204;-80
2023/01/09 01:26:53;;;;;;;0.10;0.10;;;9.50;99.90;;;;;;5065485;28;20596;-80
2023/01/09 01:29:18;;;;;;;0.10;0.10;;;9.50;99.90;;;;;;5064188;28;20201;-80
2023/01/09 01:31:44;;;;;;;0.10;0.10;;;9.50;99.90;;;;;;5065384;28;20197;-80
2023/01/09 01:34:09;;;;;;;0.10;0.10;;;9.50;99.90;;;;;;5061940;28;20192;-80
2023/01/09 01:36:35;;;;;;;0.10;0.10;;;9.50;99.90;;;;;;5063460;28;20189;-80
2023/01/09 01:39:00;;;;;;;0.10;0.10;;;9.50;99.90;;;;;;5063909;28;20255;-80
2023/01/09 01:41:29;;;;;;;0.10;0.10;;;9.50;99.90;;;;;;5066863;28;20665;-80
2023/01/09 01:44:00;;;;;;;0.10;0.10;;;9.60;99.90;;;;;;5066223;28;20188;-81
2023/01/09 01:46:27;;;;;;;0.10;0.10;;;9.60;99.90;;;;;;5064153;28;20272;-79
2023/01/09 01:48:57;;;;;;;0.10;0.10;;;9.60;99.90;;;;;;5061794;28;20981;-81
2023/01/09 01:51:25;;;;;;;0.10;0.10;;;9.60;99.90;;;;;;5063624;28;20195;-80
2023/01/09 01:53:54;;;;;;;0.10;0.10;;;9.50;99.90;;;;;;5065845;28;20263;-80
2023/01/09 01:56:25;;;;;;;0.10;0.10;;;9.50;99.90;;;;;;5063184;28;20207;-79
2023/01/09 01:58:58;;;;;;;0.10;0.10;;;9.50;99.90;;;;;;5060259;28;20215;-80
2023/01/09 02:01:24;;;;;;;0.10;0.10;;;9.50;99.90;;;;;;5062231;28;20276;-80
2023/01/09 02:03:54;;;;;;;0.10;0.10;;;9.50;99.90;;;;;;5063683;28;20213;-80
2023/01/09 02:06:19;;;;;;;0.10;0.10;;;9.50;99.90;;;;;;5063634;28;20215;-80
2023/01/09 02:08:46;;;;;;;0.10;0.10;;;9.50;99.90;;;;;;5061284;28;20616;-79
2023/01/09 02:11:13;;;;;;;0.10;0.10;;;9.40;99.90;;;;;;5066586;28;20257;-80
2023/01/09 02:13:39;;;;;;;0.10;0.10;;;9.40;99.90;;;;;;5062613;28;20191;-80
2023/01/09 02:16:40;;;;;;;0.10;0.10;;;9.30;99.90;;;;;;5066264;28;20246;-79
2023/01/09 02:19:22;;;;;;;0.10;0.10;;;9.40;99.90;;;;;;5063467;28;20200;-80
2023/01/09 02:22:18;;;;;;;0.00;0.00;;;9.40;99.90;;;;;;5062149;28;20181;-80
2023/01/09 02:24:53;;;;;;;0.10;0.10;;;9.40;99.90;;;;;;5062025;28;20263;-80
2023/01/09 02:27:43;;;;;;;0.10;0.10;;;9.40;99.90;;;;;;5060982;28;20196;-80
2023/01/09 02:30:24;;;;;;;0.10;0.10;;;9.40;99.90;;;;;;5063911;28;20189;-80
2023/01/09 02:33:05;;;;;;;0.10;0.10;;;9.40;99.90;;;;;;5062206;28;20238;-80
2023/01/09 02:35:44;;;;;;;0.10;0.10;;;9.30;99.90;;;;;;5061332;28;20220;-80
2023/01/09 02:38:27;;;;;;;0.10;0.10;;;9.30;99.90;;;;;;5061489;28;20193;-80
2023/01/09 02:41:00;;;;;;;0.10;0.10;;;9.30;99.90;;;;;;5060098;28;20211;-80
2023/01/09 02:43:27;;;;;;;0.10;0.10;;;9.10;99.90;;;;;;5059845;28;20211;-80
2023/01/09 02:45:52;;;;;;;0.10;0.10;;;9.10;99.90;;;;;;5062810;28;20214;-80
2023/01/09 02:48:18;;;;;;;0.10;0.10;;;9.00;99.90;;;;;;5060373;28;20194;-81
2023/01/09 02:50:58;;;;;;;0.10;0.10;;;9.00;99.90;;;;;;5058600;28;20187;-80
2023/01/09 02:53:39;;;;;;;0.10;0.10;;;9.00;99.90;;;;;;5061866;28;20191;-80
2023/01/09 02:56:27;;;;;;;0.10;0.10;;;9.00;99.90;;;;;;5061099;28;20261;-82
2023/01/09 02:59:11;;;;;;;0.10;0.10;;;8.90;99.90;;;;;;5062170;28;20302;-82
2023/01/09 03:02:00;;;;;;;0.10;0.10;;;9.00;99.90;;;;;;5058797;28;20278;-83
2023/01/09 03:04:37;;;;;;;0.10;0.10;;;8.90;99.90;;;;;;5059085;28;20213;-82
2023/01/09 03:07:03;;;;;;;0.10;0.10;;;8.90;99.90;;;;;;5064638;28;20236;-83
2023/01/09 03:09:32;;;;;;;0.00;0.00;;;8.80;99.90;;;;;;5065183;28;20749;-83
2023/01/09 03:12:06;;;;;;;0.10;0.10;;;8.90;99.90;;;;;;5064133;28;20291;-81
2023/01/09 03:14:33;;;;;;;0.10;0.10;;;8.90;99.90;;;;;;5065213;28;20209;-82
2023/01/09 03:17:09;;;;;;;0.00;0.00;;;9.00;99.90;;;;;;5062954;28;20215;-82
2023/01/09 03:19:34;;;;;;;0.10;0.10;;;8.90;99.90;;;;;;5062459;28;20204;-83
2023/01/09 03:22:00;;;;;;;0.10;0.10;;;8.90;99.90;;;;;;5064736;28;20194;-81
2023/01/09 03:24:26;;;;;;;0.10;0.10;;;8.90;99.90;;;;;;5065075;28;20196;-82
2023/01/09 03:26:53;;;;;;;0.10;0.10;;;8.90;99.90;;;;;;5063171;28;20196;-82
2023/01/09 03:29:19;;;;;;;0.10;0.10;;;8.90;99.90;;;;;;5067228;28;20214;-82
2023/01/09 03:31:45;;;;;;;0.10;0.10;;;8.80;99.90;;;;;;5063994;28;20563;-82
2023/01/09 03:34:10;;;;;;;0.00;0.00;;;8.70;99.90;;;;;;5063581;28;20192;-82
2023/01/09 03:36:36;;;;;;;0.10;0.10;;;8.60;99.90;;;;;;5060916;28;20276;-82
2023/01/09 03:39:01;;;;;;;0.10;0.10;;;8.50;99.90;;;;;;5063792;28;20651;-80
2023/01/09 03:41:27;;;;;;;0.10;0.10;;;8.50;99.90;;;;;;5060580;28;20175;-80
2023/01/09 03:43:52;;;;;;;0.10;0.10;;;8.50;99.90;;;;;;5060270;28;20219;-80
2023/01/09 03:46:18;;;;;;;0.10;0.10;;;8.40;99.90;;;;;;5064502;28;20214;-80
2023/01/09 03:48:43;;;;;;;0.10;0.10;;;8.40;99.90;;;;;;5063150;28;20216;-80
2023/01/09 03:51:09;;;;;;;0.10;0.10;;;8.30;99.90;;;;;;5067514;28;20217;-80
2023/01/09 03:53:34;;;;;;;0.10;0.10;;;8.30;99.90;;;;;;5065641;28;20213;-81
2023/01/09 03:56:00;;;;;;;0.10;0.10;;;8.30;99.90;;;;;;5066085;28;20767;-80
2023/01/09 03:58:26;;;;;;;0.10;0.10;;;8.30;99.90;;;;;;5064331;28;20958;-80
2023/01/09 04:00:58;;;;;;;0.00;0.00;;;8.30;99.90;;;;;;5066934;28;20557;-80
2023/01/09 04:03:23;;;;;;;0.10;0.10;;;8.30;99.90;;;;;;5076886;28;20780;-80
2023/01/09 04:05:49;;;;;;;0.10;0.10;;;8.20;99.90;;;;;;5065333;28;20238;-81
2023/01/09 04:08:15;;;;;;;0.10;0.10;;;8.20;99.90;;;;;;5067265;28;20286;-80
2023/01/09 04:10:44;;;;;;;0.10;0.10;;;8.20;99.90;;;;;;5067503;28;21013;-80
2023/01/09 04:13:09;;;;;;;0.10;0.10;;;8.20;99.90;;;;;;5064267;28;20700;-80
2023/01/09 04:15:35;;;;;;;0.10;0.10;;;8.10;99.90;;;;;;5066330;28;20195;-81
2023/01/09 04:18:02;;;;;;;0.10;0.10;;;8.10;99.90;;;;;;5068029;28;20226;-80
2023/01/09 04:20:28;;;;;;;0.10;0.10;;;8.10;99.90;;;;;;5065933;28;20290;-80
2023/01/09 04:22:53;;;;;;;0.00;0.00;;;8.00;99.90;;;;;;5067751;28;20630;-80
2023/01/09 04:25:21;;;;;;;0.03;0.03;;;8.00;99.90;;;;;;5057418;28;20216;-79
2023/01/09 04:27:47;;;;;;;0.10;0.10;;;8.00;99.90;;;;;;5043746;28;20676;-80
2023/01/09 04:30:13;;;;;;;0.00;0.00;;;8.00;99.90;;;;;;5041789;28;20184;-80
2023/01/09 04:32:38;;;;;;;0.10;0.10;;;7.90;99.90;;;;;;5054943;28;20227;-80
2023/01/09 04:35:04;;;;;;;0.10;0.10;;;7.80;99.90;;;;;;5064241;28;20268;-80
2023/01/09 04:37:30;;;;;;;0.10;0.10;;;7.80;99.90;;;;;;5064647;28;20659;-80
2023/01/09 04:39:56;;;;;;;0.00;0.00;;;7.70;99.90;;;;;;5062061;28;20210;-80
2023/01/09 04:42:22;;;;;;;0.10;0.10;;;7.60;99.90;;;;;;5065012;28;20192;-80
2023/01/09 04:44:47;;;;;;;0.10;0.10;;;7.60;99.90;;;;;;5061803;28;21316;-80
2023/01/09 04:47:13;;;;;;;0.10;0.10;;;7.50;99.90;;;;;;5068849;28;20183;-80
2023/01/09 04:49:39;;;;;;;0.10;0.10;;;7.50;99.90;;;;;;5067707;28;20227;-79
2023/01/09 04:52:05;;;;;;;0.10;0.10;;;7.50;99.90;;;;;;5068627;28;20295;-79
2023/01/09 04:54:30;;;;;;;0.10;0.10;;;7.60;99.90;;;;;;5068021;28;20212;-79
2023/01/09 04:56:56;;;;;;;0.10;0.10;;;7.60;99.90;;;;;;5067977;28;20262;-79
2023/01/09 04:59:21;;;;;;;0.00;0.00;;;7.60;99.90;;;;;;5066096;28;20235;-79
2023/01/09 05:01:47;;;;;;;0.10;0.10;;;7.70;99.90;;;;;;5067909;28;20236;-79
2023/01/09 05:04:13;;;;;;;0.10;0.10;;;7.70;99.90;;;;;;5068369;28;20176;-79
2023/01/09 05:06:38;;;;;;;0.10;0.10;;;7.80;99.90;;;;;;5065542;28;20189;-80
2023/01/09 05:09:04;;;;;;;0.10;0.10;;;7.80;99.90;;;;;;5065727;28;21665;-79
2023/01/09 05:11:29;;;;;;;0.10;0.10;;;7.90;99.90;;;;;;5068507;28;20194;-79
2023/01/09 05:13:55;;;;;;;0.10;0.10;;;7.90;99.90;;;;;;5065403;28;20191;-79
2023/01/09 05:16:21;;;;;;;0.10;0.10;;;7.90;99.90;;;;;;5067918;28;20209;-79
2023/01/09 05:18:47;;;;;;;0.10;0.10;;;7.90;99.90;;;;;;5065104;28;20216;-79
2023/01/09 05:21:13;;;;;;;0.10;0.10;;;7.90;99.90;;;;;;5065798;28;20183;-79
2023/01/09 05:23:38;;;;;;;0.10;0.10;;;7.80;99.90;;;;;;5066291;28;20186;-79
2023/01/09 05:26:04;;;;;;;0.10;0.10;;;7.70;99.90;;;;;;5066817;28;20238;-80
2023/01/09 05:28:30;;;;;;;0.10;0.10;;;7.70;99.90;;;;;;5067443;28;20185;-80
2023/01/09 05:30:56;;;;;;;0.10;0.10;;;7.70;99.90;;;;;;5062848;28;20193;-80
2023/01/09 05:33:22;;;;;;;0.10;0.10;;;7.70;99.90;;;;;;5059429;28;20689;-80
2023/01/09 05:35:47;;;;;;;0.10;0.10;;;7.60;99.90;;;;;;5067050;28;20208;-80
2023/01/09 05:38:13;;;;;;;0.07;0.07;;;7.60;99.90;;;;;;5069942;28;20601;-80
2023/01/09 05:40:38;;;;;;;0.10;0.10;;;7.50;99.90;;;;;;5070157;28;20190;-80
2023/01/09 05:43:04;;;;;;;0.10;0.10;;;7.40;99.90;;;;;;5068066;28;20295;-80
2023/01/09 05:45:29;;;;;;;0.10;0.10;;;7.30;99.90;;;;;;5069591;28;20781;-80
2023/01/09 05:47:55;;;;;;;0.10;0.10;;;7.20;99.90;;;;;;5071016;28;20638;-79
2023/01/09 05:50:20;;;;;;;0.10;0.10;;;7.30;99.90;;;;;;5071465;28;20633;-80
2023/01/09 05:52:46;;;;;;;0.07;0.07;;;7.20;99.90;;;;;;5069992;28;20194;-80
2023/01/09 05:55:12;;;;;;;0.10;0.10;;;7.20;99.90;;;;;;5070364;28;20201;-80
2023/01/09 05:57:38;;;;;;;0.00;0.00;;;7.20;99.90;;;;;;5071363;28;20174;-80
2023/01/09 06:00:04;;;;;;;0.10;0.10;;;7.10;99.90;;;;;;5070937;28;20213;-80
2023/01/09 06:02:29;;;;;;;0.10;0.10;;;7.00;99.90;;;;;;5068881;28;20213;-80
2023/01/09 06:04:55;;;;;;;0.10;0.10;;;7.00;99.90;;;;;;5068983;28;20258;-80
2023/01/09 06:07:21;;;;;;;0.10;0.10;;;6.90;99.90;;;;;;5065089;28;20181;-82
2023/01/09 06:09:46;;;;;;;0.10;0.10;;;7.00;99.90;;;;;;5070438;28;20228;-81
2023/01/09 06:12:12;;;;;;;0.10;0.10;;;6.90;99.90;;;;;;5071221;28;20200;-81
2023/01/09 06:14:37;;;;;;;0.10;0.10;;;6.90;99.90;;;;;;5061688;28;20228;-81
2023/01/09 06:17:03;;;;;;;0.10;0.10;;;6.80;99.90;;;;;;5058299;28;20536;-81
2023/01/09 06:19:28;;;;;;;0.10;0.10;;;6.80;99.90;;;;;;5061630;28;20214;-81
2023/01/09 06:21:54;;;;;;;0.10;0.10;;;6.80;99.90;;;;;;5062987;28;20185;-81
2023/01/09 06:24:19;;;;;;;0.10;0.10;;;6.90;99.90;;;;;;5068155;28;20292;-81
2023/01/09 06:26:45;;;;;;;0.10;0.10;;;7.00;99.90;;;;;;5068424;28;20170;-82
2023/01/09 06:29:10;;;;;;;0.10;0.10;;;7.10;99.90;;;;;;5070488;28;20191;-81
2023/01/09 06:31:37;;;;;;;0.10;0.10;;;7.20;99.90;;;;;;5070836;28;20203;-81
2023/01/09 06:34:02;;;;;;;0.10;0.10;;;7.20;99.90;;;;;;5071602;28;20185;-81
2023/01/09 06:36:28;;;;;;;0.10;0.10;;;7.30;99.90;;;;;;5068697;28;20553;-81
2023/01/09 06:38:53;;;;;;;0.10;0.10;;;7.40;99.90;;;;;;5072760;28;20204;-81
2023/01/09 06:41:19;;;;;;;0.10;0.10;;;7.40;99.90;;;;;;5070080;28;20189;-81
2023/01/09 06:43:44;;;;;;;0.10;0.10;;;7.40;99.90;;;;;;5071086;28;20185;-81
2023/01/09 06:46:10;;;;;;;0.10;0.10;;;7.50;99.90;;;;;;5069751;28;20384;-81
2023/01/09 06:48:36;;;;;;;0.10;0.10;;;7.50;99.90;;;;;;5068972;28;20272;-81
2023/01/09 06:51:01;;;;;;;0.10;0.10;;;7.50;99.90;;;;;;5068129;28;20256;-82
2023/01/09 06:53:27;;;;;;;0.10;0.10;;;7.50;99.90;;;;;;5068312;28;20196;-81
2023/01/09 06:55:52;;;;;;;0.10;0.10;;;7.50;99.90;;;;;;5069699;28;20209;-81
2023/01/09 06:58:19;;;;;;;0.10;0.10;;;7.50;99.90;;;;;;5068114;28;20208;-81
2023/01/09 07:00:44;;;;;;;0.10;0.10;;;7.60;99.90;;;;;;5068622;28;20181;-81
2023/01/09 07:03:10;;;;;;;0.03;0.03;;;7.60;99.90;;;;;;5068295;28;20197;-81
2023/01/09 07:05:41;;;;;;;0.10;0.10;;;7.70;99.90;;;;;;5063923;28;20204;-81
2023/01/09 07:08:07;;;;;;;0.10;0.10;;;7.70;99.90;;;;;;5069254;28;20181;-81
2023/01/09 07:10:32;;;;;;;0.00;0.00;;;7.70;99.90;;;;;;5063383;28;20316;-82
2023/01/09 07:12:58;;;;;;;0.10;0.10;;;7.80;99.90;;;;;;5065012;28;20187;-81
2023/01/09 07:15:23;;;;;;;0.10;0.10;;;7.80;99.90;;;;;;5056095;28;20208;-81
2023/01/09 07:17:52;;;;;;;0.10;0.10;;;7.80;99.90;;;;;;5066586;28;20181;-81
2023/01/09 07:20:18;;;;;;;0.10;0.10;;;7.80;99.90;;;;;;5062208;28;20299;-81
2023/01/09 07:22:45;;;;;;;0.10;0.10;;;7.80;99.90;;;;;;5066209;28;20245;-80
2023/01/09 07:25:10;;;;;;;0.10;0.10;;;7.80;99.90;;;;;;5062296;28;20211;-81
2023/01/09 07:27:36;;;;;;;0.10;0.10;;;7.80;99.90;;;;;;5064618;28;20192;-81
2023/01/09 07:30:03;;;;;;;0.10;0.10;;;7.80;99.90;;;;;;5062422;28;20232;-81
2023/01/09 07:32:28;;;;;;;0.10;0.10;;;7.80;99.90;;;;;;5064497;28;20195;-81
2023/01/09 07:34:53;;;;;;;0.00;0.00;;;7.80;99.90;;;;;;5063333;28;20313;-81
2023/01/09 07:37:19;;;;;;;0.10;0.10;;;7.80;99.90;;;;;;5062777;28;20204;-81
2023/01/09 07:39:45;;;;;;;0.10;0.10;;;7.80;99.90;;;;;;5064588;28;20210;-81
2023/01/09 07:42:10;;;;;;;0.10;0.10;;;7.90;99.90;;;;;;5061460;28;20192;-82
2023/01/09 07:44:36;;;;;;;0.10;0.10;;;7.90;99.90;;;;;;5063066;28;20249;-81
2023/01/09 07:47:02;;;;;;;0.10;0.10;;;7.90;99.90;;;;;;5060687;28;20243;-81
2023/01/09 07:49:27;;;;;;;0.10;0.10;;;7.90;99.90;;;;;;5059175;28;20263;-80
2023/01/09 07:51:53;;;;;;;0.10;0.10;;;7.90;99.90;;;;;;5064468;28;20177;-81
2023/01/09 07:54:19;;;;;;;0.10;0.10;;;7.90;99.90;;;;;;5061723;28;20219;-81
2023/01/09 07:56:45;;;;;;;0.10;0.10;;;7.90;99.90;;;;;;5062657;28;20505;-81
2023/01/09 07:59:10;;;;;;;0.10;0.10;;;8.00;99.90;;;;;;5057411;28;20214;-81
2023/01/09 08:01:36;;;;;;;0.10;0.10;;;7.90;99.90;;;;;;5059517;28;20185;-81
2023/01/09 08:04:01;;;;;;;0.10;0.10;;;8.00;99.90;;;;;;5058477;28;20186;-80
2023/01/09 08:06:27;;;;;;;0.10;0.10;;;8.00;99.90;;;;;;5054411;28;20194;-80
2023/01/09 08:08:52;;;;;;;0.10;0.10;;;7.90;99.90;;;;;;5060365;28;20192;-80
2023/01/09 08:11:18;;;;;;;0.10;0.10;;;7.90;99.90;;;;;;5060110;28;20552;-80
2023/01/09 08:13:43;;;;;;;0.10;0.10;;;7.90;99.90;;;;;;5060848;28;20253;-80
2023/01/09 08:16:09;;;;;;;0.10;0.10;;;8.00;99.90;;;;;;5070521;28;20309;-80
2023/01/09 08:18:34;;;;;;;0.10;0.10;;;8.00;99.90;;;;;;5060891;28;21855;-79
2023/01/09 08:21:00;;;;;;;0.10;0.10;;;8.00;99.90;;;;;;5055595;28;20177;-79
2023/01/09 08:23:25;;;;;;;0.10;0.10;;;8.10;99.90;;;;;;5058013;28;20244;-80
2023/01/09 08:25:52;;;;;;;0.10;0.10;;;8.10;99.90;;;;;;5055804;28;20484;-80
2023/01/09 08:28:17;;;;;;;0.10;0.10;;;8.00;99.90;;;;;;5055905;28;20189;-80
2023/01/09 08:30:43;;;;;;;0.10;0.10;;;8.00;99.90;;;;;;5059625;28;20967;-83
2023/01/09 08:33:08;;;;;;;0.10;0.10;;;8.00;99.90;;;;;;5061600;28;20188;-82
2023/01/09 08:35:34;;;;;;;0.10;0.10;;;8.10;99.90;;;;;;5061359;28;20217;-80
2023/01/09 08:38:00;;;;;;;0.10;0.10;;;8.00;99.90;;;;;;5067671;28;20194;-81
2023/01/09 08:40:25;;;;;;;0.10;0.10;;;8.00;99.90;;;;;;5068156;28;20217;-81
2023/01/09 08:48:19;;;;;;;0.10;0.10;;;8.00;99.90;;;;;;5070322;28;20188;-80
2023/01/09 08:50:45;;;;;;;0.10;0.10;;;8.10;99.90;;;;;;5069357;28;21118;-81
2023/01/09 08:53:11;;;;;;;0.10;0.10;;;8.10;99.90;;;;;;5067552;28;20193;-80
2023/01/09 08:55:36;;;;;;;0.10;0.10;;;8.20;99.90;;;;;;5071286;28;20210;-81
2023/01/09 08:58:02;;;;;;;0.10;0.10;;;8.20;99.90;;;;;;5067232;28;20692;-81
2023/01/09 09:00:27;;;;;;;0.10;0.10;;;8.20;99.90;;;;;;5069897;28;20228;-81
2023/01/09 09:02:55;;;;;;;0.10;0.10;;;8.20;99.90;;;;;;5069028;28;20186;-81
2023/01/09 09:05:22;;;;;;;0.10;0.10;;;8.30;99.90;;;;;;5070238;28;20201;-80
2023/01/09 09:07:49;;;;;;;0.10;0.10;;;8.30;99.90;;;;;;5069865;28;20186;-82
2023/01/09 09:10:16;;;;;;;0.10;0.10;;;8.30;99.90;;;;;;5068683;28;20211;-81
2023/01/09 09:12:42;;;;;;;0.10;0.10;;;8.30;99.90;;;;;;5069187;28;20205;-81
2023/01/09 09:15:11;;;;;;;0.10;0.10;;;8.30;99.90;;;;;;5068440;28;20215;-81
2023/01/09 09:17:39;;;;;;;0.10;0.10;;;8.30;99.90;;;;;;5069646;28;20191;-81
2023/01/09 09:20:05;;;;;;;0.10;0.10;;;8.30;99.90;;;;;;5067917;28;20221;-81
2023/01/09 09:22:31;;;;;;;0.10;0.10;;;8.40;99.90;;;;;;5068926;28;20194;-81
2023/01/09 09:24:56;;;;;;;0.10;0.10;;;8.40;99.90;;;;;;5068877;28;20207;-81
2023/01/09 09:27:21;;;;;;;0.10;0.10;;;8.50;99.90;;;;;;5067929;28;20238;-80
2023/01/09 09:29:47;;;;;;;0.10;0.10;;;8.50;99.90;;;;;;5067902;28;20736;-81
2023/01/09 09:32:12;;;;;;;0.10;0.10;;;8.50;99.90;;;;;;5064613;28;20197;-81
2023/01/09 09:34:38;;;;;;;0.10;0.10;;;8.50;99.90;;;;;;5084954;28;20307;-81
2023/01/09 09:37:04;;;;;;;0.10;0.10;;;8.50;99.90;;;;;;5063464;28;20187;-81
2023/01/09 09:39:29;;;;;;;0.10;0.10;;;8.50;99.90;;;;;;5065534;28;20209;-81
2023/01/09 09:45:14;;;;;;;0.10;0.10;;;8.50;99.90;;;;;;5063820;28;20264;-81
2023/01/09 09:47:44;;;;;;;0.10;0.10;;;8.40;99.90;;;;;;5062916;28;20216;-81
2023/01/09 09:50:41;;;;;;;0.10;0.10;;;8.40;99.90;;;;;;5062536;28;20534;-81
2023/01/09 09:53:19;;;;;;;0.10;0.10;;;8.50;99.90;;;;;;5057527;28;20826;-80
2023/01/09 09:55:48;;;;;;;0.10;0.10;;;8.60;99.90;;;;;;5055494;28;20297;-80
2023/01/09 09:58:32;;;;;;;1.50;1.50;;;8.70;99.90;;;;;;5063456;28;20276;-80
2023/01/09 10:01:00;;;;;;;0.10;0.10;;;8.70;99.90;;;;;;5059291;28;20311;-80
2023/01/09 10:03:40;;;;;;;0.10;0.10;;;8.70;99.90;;;;;;5065364;28;20686;-80
2023/01/09 10:06:15;;;;;;;0.10;0.10;;;8.70;99.90;;;;;;5065317;28;20704;-79
2023/01/09 10:09:10;;;;;;;0.10;0.10;;;8.60;99.90;;;;;;5064550;28;20233;-80
2023/01/09 10:11:45;;;;;;;0.10;0.10;;;8.60;99.90;;;;;;5080867;28;20252;-80
2023/01/09 10:14:11;;;;;;;0.10;0.10;;;8.70;99.90;;;;;;5074351;28;20185;-80
2023/01/09 10:16:43;;;;;;;0.10;0.10;;;8.70;99.90;;;;;;5065408;28;20186;-80
2023/01/09 10:19:21;;;;;;;0.10;0.10;;;8.70;99.90;;;;;;5064404;28;20206;-80
2023/01/09 10:22:05;;;;;;;0.10;0.10;;;8.70;99.90;;;;;;5064151;28;20196;-80
2023/01/09 10:24:57;;;;;;;0.10;0.10;;;8.80;99.90;;;;;;5065856;28;20232;-80
2023/01/09 10:28:00;;;;;;;0.10;0.10;;;8.70;99.90;;;;;;5065738;28;20188;-80
2023/01/09 10:30:50;;;;;;;0.10;0.10;;;8.80;99.90;;;;;;5055870;28;20192;-79
2023/01/09 10:33:40;;;;;;;0.10;0.10;;;8.90;99.90;;;;;;5063829;28;20179;-79
2023/01/09 10:36:15;;;;;;;0.10;0.10;;;8.80;99.90;;;;;;5062718;28;20200;-79
2023/01/09 10:38:46;;;;;;;0.10;0.10;;;8.80;99.90;;;;;;5063360;28;20560;-80
2023/01/09 10:41:16;;;;;;;0.10;0.10;;;8.70;99.90;;;;;;5064927;28;20199;-81
2023/01/09 10:43:52;;;;;;;0.10;0.10;;;8.80;99.90;;;;;;5063994;28;20190;-80
2023/01/09 10:46:29;;;;;;;0.10;0.10;;;8.90;99.90;;;;;;5065000;28;20234;-81
2023/01/09 10:48:59;;;;;;;0.10;0.10;;;8.90;99.90;;;;;;5059894;28;20190;-80
2023/01/09 10:51:36;;;;;;;0.10;0.10;;;9.00;99.90;;;;;;5062035;28;20195;-80
2023/01/09 10:54:04;;;;;;;0.10;0.10;;;9.10;99.90;;;;;;5063279;28;20181;-80
2023/01/09 10:56:38;;;;;;;0.10;0.10;;;9.10;99.90;;;;;;5061806;28;20192;-80
2023/01/09 10:59:04;;;;;;;0.10;0.10;;;9.30;99.90;;;;;;5064527;28;20214;-79
2023/01/09 11:01:38;;;;;;;0.10;0.10;;;9.50;99.90;;;;;;5064292;28;20654;-79
2023/01/09 11:04:24;;;;;;;0.10;0.10;;;9.60;99.90;;;;;;5065996;28;20180;-79
2023/01/09 11:07:03;;;;;;;0.10;0.10;;;9.60;99.90;;;;;;5062517;28;20723;-79
2023/01/09 11:10:03;;;;;;;0.10;0.10;;;9.60;99.90;;;;;;5063776;28;20253;-79
2023/01/09 11:12:30;;;;;;;0.10;0.10;;;9.70;99.90;;;;;;5066361;28;20203;-80
2023/01/09 11:15:14;;;;;;;0.10;0.10;;;9.70;99.90;;;;;;5063670;28;21141;-79
2023/01/09 11:17:40;;;;;;;0.10;0.10;;;9.60;99.90;;;;;;5065123;28;20235;-80
2023/01/09 11:20:15;;;;;;;0.10;0.10;;;9.60;99.90;;;;;;5064133;28;20674;-79
2023/01/09 11:22:47;;;;;;;0.10;0.10;;;9.70;99.90;;;;;;5065537;28;20179;-80
2023/01/09 11:25:14;;;;;;;0.10;0.10;;;9.70;99.90;;;;;;5059197;28;20262;-81
2023/01/09 11:27:40;;;;;;;0.10;0.10;;;9.80;99.90;;;;;;5064804;28;20309;-81
2023/01/09 11:30:19;;;;;;;0.10;0.10;;;9.70;99.90;;;;;;5061506;28;20209;-81
2023/01/09 11:32:46;;;;;;;0.10;0.10;;;9.50;99.90;;;;;;5065222;28;20187;-81
2023/01/09 11:35:19;;;;;;;0.10;0.10;;;9.50;99.90;;;;;;5064656;28;20310;-80
2023/01/09 11:37:46;;;;;;;0.10;0.10;;;9.50;99.90;;;;;;5061702;28;20196;-81
2023/01/09 11:40:20;;;;;;;0.10;0.10;;;9.50;99.90;;;;;;5061655;28;20377;-80
2023/01/09 11:43:29;;;;;;;0.10;0.10;;;9.60;99.90;;;;;;5058343;28;20183;-82
2023/01/09 11:45:56;;;;;;;0.10;0.10;;;9.80;99.90;;;;;;4998097;28;20206;-82
2023/01/09 11:48:55;;;;;;;0.10;0.10;;;9.90;99.90;;;;;;5061290;28;20199;-81
2023/01/09 11:51:26;;;;;;;0.10;0.10;;;9.90;99.90;;;;;;5048443;28;20218;-82
2023/01/09 11:53:59;;;;;;;0.10;0.10;;;9.70;99.90;;;;;;5063612;28;20198;-82
2023/01/09 11:56:25;;;;;;;0.10;0.10;;;9.50;99.90;;;;;;5060529;28;20583;-82
2023/01/09 11:58:52;;;;;;;0.10;0.10;;;9.50;99.90;;;;;;5060098;28;20872;-82
2023/01/09 12:01:57;;;;;;;0.10;0.10;;;9.50;99.90;;;;;;5077718;28;20269;-82
2023/01/09 12:04:45;;;;;;;0.10;0.10;;;9.40;99.90;;;;;;5061840;28;20226;-82
2023/01/09 12:07:38;;;;;;;0.10;0.10;;;9.30;99.90;;;;;;5062179;28;20206;-82
2023/01/09 12:10:39;;;;;;;0.10;0.10;;;9.40;99.90;;;;;;5069921;28;20191;-82
2023/01/09 12:13:22;;;;;;;0.10;0.10;;;9.30;99.90;;;;;;5063256;28;20238;-82
2023/01/09 12:16:12;;;;;;;0.10;0.10;;;9.20;99.90;;;;;;5058660;28;20204;-82
2023/01/09 12:19:03;;;;;;;0.10;0.10;;;9.30;99.90;;;;;;5059874;28;20282;-82
2023/01/09 12:21:33;;;;;;;0.10;0.10;;;9.30;99.90;;;;;;5061558;28;20191;-82
2023/01/09 12:24:26;;;;;;;0.10;0.10;;;9.40;99.90;;;;;;5061196;28;20608;-83
2023/01/09 12:27:14;;;;;;;0.10;0.10;;;9.30;99.90;;;;;;5061369;28;20745;-82
2023/01/09 12:29:51;;;;;;;0.10;0.10;;;9.40;99.90;;;;;;5061757;28;20249;-81
2023/01/09 12:32:29;;;;;;;0.10;0.10;;;9.40;99.90;;;;;;5059709;28;20238;-82
2023/01/09 12:35:22;;;;;;;0.10;0.10;;;9.40;99.90;;;;;;5061291;28;20260;-82
2023/01/09 12:38:24;;;;;;;0.10;0.10;;;9.40;99.90;;;;;;5059478;28;20276;-82
2023/01/09 12:41:02;;;;;;;0.10;0.10;;;9.50;99.90;;;;;;5060895;28;20196;-80
2023/01/09 12:43:34;;;;;;;0.10;0.10;;;9.50;99.90;;;;;;5057021;28;20211;-80
2023/01/09 12:46:37;;;;;;;0.10;0.10;;;9.40;99.90;;;;;;5061092;28;20200;-81
2023/01/09 12:49:36;;;;;;;0.10;0.10;;;9.40;99.90;;;;;;5055809;28;20198;-80
2023/01/09 12:52:28;;;;;;;0.10;0.10;;;9.40;99.90;;;;;;5063181;28;20185;-81
2023/01/09 12:55:03;;;;;;;0.10;0.10;;;9.40;99.90;;;;;;5056309;28;20238;-81
2023/01/09 12:57:47;;;;;;;0.10;0.10;;;9.20;99.90;;;;;;5073032;28;20340;-80
2023/01/09 13:00:39;;;;;;;0.10;0.10;;;9.30;99.90;;;;;;5059919;28;20311;-80
2023/01/09 13:03:34;;;;;;;0.10;0.10;;;9.30;99.90;;;;;;5062513;28;20184;-80
2023/01/09 13:06:01;;;;;;;0.10;0.10;;;9.30;99.90;;;;;;5063321;28;20572;-81
2023/01/09 13:08:52;;;;;;;0.10;0.10;;;9.40;99.90;;;;;;5066403;28;20180;-80
2023/01/09 13:11:30;;;;;;;0.10;0.10;;;9.40;99.90;;;;;;5063539;28;20189;-80
2023/01/09 13:14:16;;;;;;;0.10;0.10;;;9.50;99.90;;;;;;5062021;28;20184;-85
2023/01/09 13:16:47;;;;;;;0.10;0.10;;;9.40;99.90;;;;;;5062019;28;20197;-80
2023/01/09 13:19:21;;;;;;;0.10;0.10;;;9.40;99.90;;;;;;5066250;28;20573;-80
2023/01/09 13:21:47;;;;;;;0.10;0.10;;;9.30;99.90;;;;;;5066374;28;20211;-80
2023/01/09 13:24:21;;;;;;;0.10;0.10;;;9.30;99.90;;;;;;5066252;28;20179;-80
2023/01/09 13:26:53;;;;;;;0.10;0.10;;;9.30;99.90;;;;;;5067475;28;20952;-80
2023/01/09 13:29:38;;;;;;;0.10;0.10;;;9.40;99.90;;;;;;5067688;28;20215;-80